sensor_id;sensor_type;location;lat;lon;timestamp;temperature;humidity
63260;DHT22;49390;51.380;0.098;2023-08-08T00:00:39;15.50;97.00
63260;DHT22;49390;51.380;0.098;2023-08-08T00:03:27;15.50;97.80
63260;DHT22;49390;51.380;0.098;2023-08-08T00:05:55;15.50;98.40
63260;DHT22;49390;51.380;0.098;2023-08-08T00:08:23;15.40;99.00
63260;DHT22;49390;51.380;0.098;2023-08-08T00:10:52;15.40;99.60
63260;DHT22;49390;51.380;0.098;2023-08-08T00:13:19;15.40;99.90
63260;DHT22;49390;51.380;0.098;2023-08-08T00:15:48;15.40;99.90
63260;DHT22;49390;51.380;0.098;2023-08-08T00:18:16;15.40;99.90
63260;DHT22;49390;51.380;0.098;2023-08-08T00:20:44;15.30;99.90
63260;DHT22;49390;51.380;0.098;2023-08-08T00:23:12;15.30;99.90
63260;DHT22;49390;51.380;0.098;2023-08-08T00:25:40;15.30;99.90
63260;DHT22;49390;51.380;0.098;2023-08-08T00:28:08;15.30;99.90
63260;DHT22;49390;51.380;0.098;2023-08-08T00:30:36;15.30;99.90
63260;DHT22;49390;51.380;0.098;2023-08-08T00:33:05;15.30;99.90
63260;DHT22;49390;51.380;0.098;2023-08-08T00:35:33;15.20;99.90
63260;DHT22;49390;51.380;0.098;2023-08-08T00:38:01;15.20;99.90
63260;DHT22;49390;51.380;0.098;2023-08-08T00:40:29;15.20;99.90
63260;DHT22;49390;51.380;0.098;2023-08-08T00:42:57;15.20;99.90
63260;DHT22;49390;51.380;0.098;2023-08-08T00:45:26;15.20;99.90
63260;DHT22;49390;51.380;0.098;2023-08-08T00:47:54;15.20;99.90
63260;DHT22;49390;51.380;0.098;2023-08-08T00:50:23;15.20;99.90
63260;DHT22;49390;51.380;0.098;2023-08-08T00:52:53;15.20;99.90
63260;DHT22;49390;51.380;0.098;2023-08-08T00:55:22;15.20;99.90
63260;DHT22;49390;51.380;0.098;2023-08-08T00:57:50;15.20;99.90
63260;DHT22;49390;51.380;0.098;2023-08-08T01:00:20;15.20;99.90
63260;DHT22;49390;51.380;0.098;2023-08-08T01:02:48;15.20;99.90
63260;DHT22;49390;51.380;0.098;2023-08-08T01:05:17;15.20;99.90
63260;DHT22;49390;51.380;0.098;2023-08-08T01:08:05;15.20;99.90
63260;DHT22;49390;51.380;0.098;2023-08-08T01:10:39;15.20;99.90
63260;DHT22;49390;51.380;0.098;2023-08-08T01:13:10;15.20;99.90
63260;DHT22;49390;51.380;0.098;2023-08-08T01:15:42;15.20;99.90
63260;DHT22;49390;51.380;0.098;2023-08-08T01:18:11;15.20;99.90
63260;DHT22;49390;51.380;0.098;2023-08-08T01:20:40;15.20;99.90
63260;DHT22;49390;51.380;0.098;2023-08-08T01:23:16;15.10;99.90
63260;DHT22;49390;51.380;0.098;2023-08-08T01:25:48;15.10;99.90
63260;DHT22;49390;51.380;0.098;2023-08-08T01:28:19;15.10;99.90
63260;DHT22;49390;51.380;0.098;2023-08-08T01:30:48;15.00;99.90
63260;DHT22;49390;51.380;0.098;2023-08-08T01:33:18;15.00;99.90
63260;DHT22;49390;51.380;0.098;2023-08-08T01:36:15;15.00;99.90
63260;DHT22;49390;51.380;0.098;2023-08-08T01:38:49;14.90;99.90
63260;DHT22;49390;51.380;0.098;2023-08-08T01:41:20;14.90;99.90
63260;DHT22;49390;51.380;0.098;2023-08-08T01:43:49;14.90;99.90
63260;DHT22;49390;51.380;0.098;2023-08-08T01:46:18;14.80;99.90
63260;DHT22;49390;51.380;0.098;2023-08-08T01:48:46;14.80;99.90
63260;DHT22;49390;51.380;0.098;2023-08-08T01:51:17;14.80;99.90
63260;DHT22;49390;51.380;0.098;2023-08-08T01:53:48;14.70;99.90
63260;DHT22;49390;51.380;0.098;2023-08-08T01:56:16;14.70;99.90
63260;DHT22;49390;51.380;0.098;2023-08-08T01:58:44;14.60;99.90
63260;DHT22;49390;51.380;0.098;2023-08-08T02:01:12;14.60;99.90
63260;DHT22;49390;51.380;0.098;2023-08-08T02:03:40;14.60;99.90
63260;DHT22;49390;51.380;0.098;2023-08-08T02:06:09;14.60;99.90
63260;DHT22;49390;51.380;0.098;2023-08-08T02:08:37;14.60;99.90
63260;DHT22;49390;51.380;0.098;2023-08-08T02:11:05;14.50;99.90
63260;DHT22;49390;51.380;0.098;2023-08-08T02:13:33;14.50;99.90
63260;DHT22;49390;51.380;0.098;2023-08-08T02:16:01;14.50;99.90
63260;DHT22;49390;51.380;0.098;2023-08-08T02:18:30;14.50;99.90
63260;DHT22;49390;51.380;0.098;2023-08-08T02:20:58;14.40;99.90
63260;DHT22;49390;51.380;0.098;2023-08-08T02:23:26;14.40;99.90
63260;DHT22;49390;51.380;0.098;2023-08-08T02:25:55;14.40;99.90
63260;DHT22;49390;51.380;0.098;2023-08-08T02:28:23;14.30;99.90
63260;DHT22;49390;51.380;0.098;2023-08-08T02:30:51;14.30;99.90
63260;DHT22;49390;51.380;0.098;2023-08-08T02:33:20;14.30;99.90
63260;DHT22;49390;51.380;0.098;2023-08-08T02:35:48;14.30;99.90
63260;DHT22;49390;51.380;0.098;2023-08-08T02:38:16;14.20;99.90
63260;DHT22;49390;51.380;0.098;2023-08-08T02:40:45;14.20;99.90
63260;DHT22;49390;51.380;0.098;2023-08-08T02:43:13;14.20;99.90
63260;DHT22;49390;51.380;0.098;2023-08-08T02:45:41;14.20;99.90
63260;DHT22;49390;51.380;0.098;2023-08-08T02:48:09;14.20;99.90
63260;DHT22;49390;51.380;0.098;2023-08-08T02:50:38;14.30;99.90
63260;DHT22;49390;51.380;0.098;2023-08-08T02:53:07;14.10;99.90
63260;DHT22;49390;51.380;0.098;2023-08-08T02:55:44;14.10;99.90
63260;DHT22;49390;51.380;0.098;2023-08-08T02:58:12;14.10;99.90
63260;DHT22;49390;51.380;0.098;2023-08-08T03:00:40;14.10;99.90
63260;DHT22;49390;51.380;0.098;2023-08-08T03:03:12;14.10;99.90
63260;DHT22;49390;51.380;0.098;2023-08-08T03:05:45;14.00;99.90
63260;DHT22;49390;51.380;0.098;2023-08-08T03:08:16;14.00;99.90
63260;DHT22;49390;51.380;0.098;2023-08-08T03:10:46;14.00;99.90
63260;DHT22;49390;51.380;0.098;2023-08-08T03:13:15;14.00;99.90
63260;DHT22;49390;51.380;0.098;2023-08-08T03:15:45;14.00;99.90
63260;DHT22;49390;51.380;0.098;2023-08-08T03:20:34;14.10;99.90
63260;DHT22;49390;51.380;0.098;2023-08-08T03:23:04;14.10;99.90
63260;DHT22;49390;51.380;0.098;2023-08-08T03:25:32;14.10;99.90
63260;DHT22;49390;51.380;0.098;2023-08-08T03:28:01;14.10;99.90
63260;DHT22;49390;51.380;0.098;2023-08-08T03:30:29;14.10;99.90
63260;DHT22;49390;51.380;0.098;2023-08-08T03:32:57;14.10;99.90
63260;DHT22;49390;51.380;0.098;2023-08-08T03:35:25;14.10;99.90
63260;DHT22;49390;51.380;0.098;2023-08-08T03:37:54;14.10;99.90
63260;DHT22;49390;51.380;0.098;2023-08-08T03:40:22;14.10;99.90
63260;DHT22;49390;51.380;0.098;2023-08-08T03:42:50;14.10;99.90
63260;DHT22;49390;51.380;0.098;2023-08-08T03:45:18;14.10;99.90
63260;DHT22;49390;51.380;0.098;2023-08-08T03:47:47;14.10;99.90
63260;DHT22;49390;51.380;0.098;2023-08-08T03:50:15;14.10;99.90
63260;DHT22;49390;51.380;0.098;2023-08-08T03:52:43;14.10;99.90
63260;DHT22;49390;51.380;0.098;2023-08-08T03:55:12;14.10;99.90
63260;DHT22;49390;51.380;0.098;2023-08-08T03:57:41;14.10;99.90
63260;DHT22;49390;51.380;0.098;2023-08-08T04:00:10;14.10;99.90
63260;DHT22;49390;51.380;0.098;2023-08-08T04:02:42;14.10;99.90
63260;DHT22;49390;51.380;0.098;2023-08-08T04:05:10;14.20;99.90
63260;DHT22;49390;51.380;0.098;2023-08-08T04:07:38;14.20;99.90
63260;DHT22;49390;51.380;0.098;2023-08-08T04:10:06;14.20;99.90
63260;DHT22;49390;51.380;0.098;2023-08-08T04:12:35;14.20;99.90
63260;DHT22;49390;51.380;0.098;2023-08-08T04:15:03;14.20;99.90
63260;DHT22;49390;51.380;0.098;2023-08-08T04:17:32;14.20;99.90
63260;DHT22;49390;51.380;0.098;2023-08-08T04:20:01;14.30;99.90
63260;DHT22;49390;51.380;0.098;2023-08-08T04:22:29;14.30;99.90
63260;DHT22;49390;51.380;0.098;2023-08-08T04:24:57;14.30;99.90
63260;DHT22;49390;51.380;0.098;2023-08-08T04:27:28;14.30;99.90
63260;DHT22;49390;51.380;0.098;2023-08-08T04:29:56;14.40;99.90
63260;DHT22;49390;51.380;0.098;2023-08-08T04:32:25;14.30;99.90
63260;DHT22;49390;51.380;0.098;2023-08-08T04:34:53;14.40;99.90
63260;DHT22;49390;51.380;0.098;2023-08-08T04:37:21;14.40;99.90
63260;DHT22;49390;51.380;0.098;2023-08-08T04:39:49;14.40;99.90
63260;DHT22;49390;51.380;0.098;2023-08-08T04:42:17;14.40;99.90
63260;DHT22;49390;51.380;0.098;2023-08-08T04:44:46;14.40;99.90
63260;DHT22;49390;51.380;0.098;2023-08-08T04:47:14;14.40;99.90
63260;DHT22;49390;51.380;0.098;2023-08-08T04:49:42;14.40;99.90
63260;DHT22;49390;51.380;0.098;2023-08-08T04:52:10;14.40;99.90
63260;DHT22;49390;51.380;0.098;2023-08-08T04:54:38;14.40;99.90
63260;DHT22;49390;51.380;0.098;2023-08-08T04:57:06;14.40;99.90
63260;DHT22;49390;51.380;0.098;2023-08-08T04:59:34;14.40;99.90
63260;DHT22;49390;51.380;0.098;2023-08-08T05:02:03;14.40;99.90
63260;DHT22;49390;51.380;0.098;2023-08-08T05:04:31;14.50;99.90
63260;DHT22;49390;51.380;0.098;2023-08-08T05:06:59;14.50;99.90
63260;DHT22;49390;51.380;0.098;2023-08-08T05:09:27;14.50;99.90
63260;DHT22;49390;51.380;0.098;2023-08-08T05:11:55;14.50;99.90
63260;DHT22;49390;51.380;0.098;2023-08-08T05:14:25;14.50;99.90
63260;DHT22;49390;51.380;0.098;2023-08-08T05:16:54;14.40;99.90
63260;DHT22;49390;51.380;0.098;2023-08-08T05:19:22;14.50;99.90
63260;DHT22;49390;51.380;0.098;2023-08-08T05:21:53;14.50;99.90
63260;DHT22;49390;51.380;0.098;2023-08-08T05:24:21;14.50;99.90
63260;DHT22;49390;51.380;0.098;2023-08-08T05:26:49;14.50;99.90
63260;DHT22;49390;51.380;0.098;2023-08-08T05:29:17;14.50;99.90
63260;DHT22;49390;51.380;0.098;2023-08-08T05:31:46;14.50;99.90
63260;DHT22;49390;51.380;0.098;2023-08-08T05:34:15;14.50;99.90
63260;DHT22;49390;51.380;0.098;2023-08-08T05:36:43;14.50;99.90
63260;DHT22;49390;51.380;0.098;2023-08-08T05:39:11;14.50;99.90
63260;DHT22;49390;51.380;0.098;2023-08-08T05:41:40;14.50;99.90
63260;DHT22;49390;51.380;0.098;2023-08-08T05:44:08;14.60;99.90
63260;DHT22;49390;51.380;0.098;2023-08-08T05:46:36;14.60;99.90
63260;DHT22;49390;51.380;0.098;2023-08-08T05:49:04;14.70;99.90
63260;DHT22;49390;51.380;0.098;2023-08-08T05:51:32;14.70;99.90
63260;DHT22;49390;51.380;0.098;2023-08-08T05:54:00;14.80;99.90
63260;DHT22;49390;51.380;0.098;2023-08-08T05:56:38;14.80;99.90
63260;DHT22;49390;51.380;0.098;2023-08-08T05:59:07;14.90;99.90
63260;DHT22;49390;51.380;0.098;2023-08-08T06:01:35;15.00;99.90
63260;DHT22;49390;51.380;0.098;2023-08-08T06:04:03;15.10;99.90
63260;DHT22;49390;51.380;0.098;2023-08-08T06:06:31;15.20;99.90
63260;DHT22;49390;51.380;0.098;2023-08-08T06:09:00;15.30;99.90
63260;DHT22;49390;51.380;0.098;2023-08-08T06:11:28;15.30;99.90
63260;DHT22;49390;51.380;0.098;2023-08-08T06:13:56;15.40;99.90
63260;DHT22;49390;51.380;0.098;2023-08-08T06:16:26;15.40;99.90
63260;DHT22;49390;51.380;0.098;2023-08-08T06:18:54;15.40;99.90
63260;DHT22;49390;51.380;0.098;2023-08-08T06:21:22;15.40;99.90
63260;DHT22;49390;51.380;0.098;2023-08-08T06:23:50;15.40;99.90
63260;DHT22;49390;51.380;0.098;2023-08-08T06:26:21;15.40;99.90
63260;DHT22;49390;51.380;0.098;2023-08-08T06:28:50;15.40;99.90
63260;DHT22;49390;51.380;0.098;2023-08-08T06:31:19;15.40;99.90
63260;DHT22;49390;51.380;0.098;2023-08-08T06:33:50;15.40;99.90
63260;DHT22;49390;51.380;0.098;2023-08-08T06:36:19;15.50;99.90
63260;DHT22;49390;51.380;0.098;2023-08-08T06:38:47;14.50;99.90
63260;DHT22;49390;51.380;0.098;2023-08-08T06:41:15;15.70;99.90
63260;DHT22;49390;51.380;0.098;2023-08-08T06:43:44;15.80;99.90
63260;DHT22;49390;51.380;0.098;2023-08-08T06:46:12;15.80;99.90
63260;DHT22;49390;51.380;0.098;2023-08-08T06:48:42;16.00;99.90
63260;DHT22;49390;51.380;0.098;2023-08-08T06:51:12;16.00;99.90
63260;DHT22;49390;51.380;0.098;2023-08-08T06:53:40;16.10;99.90
63260;DHT22;49390;51.380;0.098;2023-08-08T06:56:08;16.20;99.90
63260;DHT22;49390;51.380;0.098;2023-08-08T22:13:40;17.10;99.90
63260;DHT22;49390;51.380;0.098;2023-08-08T22:16:12;17.10;99.90
63260;DHT22;49390;51.380;0.098;2023-08-08T22:18:41;17.10;99.90
63260;DHT22;49390;51.380;0.098;2023-08-08T22:21:09;17.00;99.90
63260;DHT22;49390;51.380;0.098;2023-08-08T22:23:40;17.00;99.90
63260;DHT22;49390;51.380;0.098;2023-08-08T22:26:08;17.00;99.90
63260;DHT22;49390;51.380;0.098;2023-08-08T22:28:36;17.00;99.90
63260;DHT22;49390;51.380;0.098;2023-08-08T22:31:05;17.00;99.90
63260;DHT22;49390;51.380;0.098;2023-08-08T22:33:34;16.90;99.90
63260;DHT22;49390;51.380;0.098;2023-08-08T22:36:02;16.90;99.90
63260;DHT22;49390;51.380;0.098;2023-08-08T22:38:30;16.90;99.90
63260;DHT22;49390;51.380;0.098;2023-08-08T22:40:59;16.80;99.90
63260;DHT22;49390;51.380;0.098;2023-08-08T22:43:27;16.80;99.90
63260;DHT22;49390;51.380;0.098;2023-08-08T22:45:57;16.80;99.90
63260;DHT22;49390;51.380;0.098;2023-08-08T22:48:26;16.70;99.90
63260;DHT22;49390;51.380;0.098;2023-08-08T22:50:54;16.70;99.90
63260;DHT22;49390;51.380;0.098;2023-08-08T22:53:24;16.60;99.90
63260;DHT22;49390;51.380;0.098;2023-08-08T22:55:53;16.50;99.90
63260;DHT22;49390;51.380;0.098;2023-08-08T22:58:21;16.50;99.90
63260;DHT22;49390;51.380;0.098;2023-08-08T23:00:49;16.40;99.90
63260;DHT22;49390;51.380;0.098;2023-08-08T23:03:18;16.40;99.90
63260;DHT22;49390;51.380;0.098;2023-08-08T23:05:46;16.40;99.90
63260;DHT22;49390;51.380;0.098;2023-08-08T23:08:14;16.30;99.90
63260;DHT22;49390;51.380;0.098;2023-08-08T23:10:43;16.30;99.90
63260;DHT22;49390;51.380;0.098;2023-08-08T23:13:10;16.20;99.90
63260;DHT22;49390;51.380;0.098;2023-08-08T23:15:38;16.20;99.90
63260;DHT22;49390;51.380;0.098;2023-08-08T23:18:06;16.10;99.90
63260;DHT22;49390;51.380;0.098;2023-08-08T23:20:35;16.00;99.90
63260;DHT22;49390;51.380;0.098;2023-08-08T23:23:05;16.00;99.90
63260;DHT22;49390;51.380;0.098;2023-08-08T23:25:34;15.90;99.90
63260;DHT22;49390;51.380;0.098;2023-08-08T23:28:02;15.90;99.90
